createdAt,value
2022-10-31T00:01:41.097Z,37.70
2022-10-31T00:04:09.323Z,46.63
2022-10-31T00:06:37.757Z,65.13
2022-10-31T00:09:07.516Z,28.17
2022-10-31T00:11:35.865Z,35.67
2022-10-31T00:14:04.451Z,40.30
2022-10-31T00:16:33.033Z,34.17
2022-10-31T00:19:04.688Z,43.38
2022-10-31T00:21:33.498Z,21.58
2022-10-31T00:24:02.307Z,46.17
2022-10-31T00:26:33.067Z,38.38
2022-10-31T00:29:02.201Z,53.33
2022-10-31T00:31:30.918Z,58.35
2022-10-31T00:34:00.227Z,28.15
2022-10-31T00:36:28.789Z,41.13
2022-10-31T00:38:57.274Z,49.65
2022-10-31T00:41:25.530Z,74.57
2022-10-31T00:43:55.158Z,54.70
2022-10-31T00:46:23.492Z,55.80
2022-10-31T00:48:51.642Z,39.17
2022-10-31T00:51:19.886Z,42.55
2022-10-31T00:53:48.235Z,53.10
2022-10-31T00:56:16.402Z,27.42
2022-10-31T00:58:44.622Z,63.08
2022-10-31T01:01:14.279Z,64.10
2022-10-31T01:03:42.505Z,25.75
2022-10-31T01:06:13.436Z,27.10
2022-10-31T01:08:41.897Z,15.75
2022-10-31T01:11:14.227Z,19.83
2022-10-31T01:13:43.453Z,14.13
2022-10-31T01:16:15.936Z,24.83
2022-10-31T01:18:44.590Z,17.95
2022-10-31T01:21:15.263Z,33.72
2022-10-31T01:23:43.677Z,31.05
2022-10-31T01:26:15.242Z,21.85
2022-10-31T01:28:48.506Z,27.90
2022-10-31T01:31:20.166Z,37.35
2022-10-31T01:33:48.660Z,18.25
2022-10-31T01:36:22.102Z,32.92
2022-10-31T01:38:51.422Z,18.35
2022-10-31T01:41:23.229Z,25.30
2022-10-31T01:43:55.022Z,32.20
2022-10-31T01:46:29.552Z,15.32
2022-10-31T01:48:59.735Z,13.63
2022-10-31T01:51:32.367Z,13.65
2022-10-31T01:54:10.190Z,14.75
2022-10-31T01:56:43.804Z,21.02
2022-10-31T01:59:14.853Z,32.88
2022-10-31T02:01:44.825Z,14.20
2022-10-31T02:04:13.411Z,26.40
2022-10-31T02:06:47.742Z,17.70
2022-10-31T02:09:17.288Z,11.65
2022-10-31T02:11:47.110Z,19.67
2022-10-31T02:14:16.030Z,19.48
2022-10-31T02:16:45.582Z,16.75
2022-10-31T02:19:21.325Z,17.05
2022-10-31T02:21:58.441Z,22.20
2022-10-31T02:24:51.604Z,18.27
2022-10-31T02:28:03.673Z,13.70
2022-10-31T02:30:43.443Z,16.33
2022-10-31T02:33:25.711Z,25.42
2022-10-31T02:36:06.699Z,25.50
2022-10-31T02:38:49.768Z,22.33
2022-10-31T02:41:28.730Z,26.90
2022-10-31T02:44:08.189Z,21.58
2022-10-31T02:46:45.778Z,17.73
2022-10-31T02:49:25.319Z,26.88
2022-10-31T02:51:53.810Z,17.83
2022-10-31T02:54:25.486Z,13.02
2022-10-31T02:56:58.477Z,23.50
2022-10-31T02:59:27.221Z,31.20
2022-10-31T03:02:38.270Z,26.00
2022-10-31T03:05:23.241Z,24.55
2022-10-31T03:08:02.332Z,18.38
2022-10-31T03:10:39.330Z,27.00
2022-10-31T03:13:14.437Z,34.63
2022-10-31T03:15:47.544Z,17.88
2022-10-31T03:18:23.258Z,43.53
2022-10-31T03:21:00.759Z,36.78
2022-10-31T03:23:30.021Z,14.13
2022-10-31T03:25:58.603Z,21.13
2022-10-31T03:28:30.891Z,23.58
2022-10-31T03:31:02.363Z,19.75
2022-10-31T03:33:37.518Z,16.90
2022-10-31T03:36:12.659Z,28.35
2022-10-31T03:38:42.399Z,21.45
2022-10-31T03:41:25.760Z,28.55
2022-10-31T03:44:01.729Z,34.42
2022-10-31T03:46:30.089Z,29.95
2022-10-31T03:48:59.484Z,26.90
2022-10-31T03:51:39.343Z,22.88
2022-10-31T03:54:17.157Z,21.08
2022-10-31T03:56:52.651Z,20.92
2022-10-31T03:59:26.546Z,48.85
2022-10-31T04:02:00.315Z,36.65
2022-10-31T04:04:31.170Z,52.50
2022-10-31T04:07:03.507Z,26.00
2022-10-31T04:09:35.634Z,51.78
2022-10-31T04:12:07.583Z,53.17
2022-10-31T04:14:39.061Z,55.85
2022-10-31T04:17:13.995Z,54.25
2022-10-31T04:19:42.254Z,103.47
2022-10-31T04:22:12.449Z,44.97
2022-10-31T04:24:42.872Z,54.35
2022-10-31T04:27:11.189Z,22.90
2022-10-31T04:29:39.403Z,25.65
2022-10-31T04:32:07.650Z,47.78
2022-10-31T04:34:35.871Z,36.63
2022-10-31T04:37:04.096Z,34.95
2022-10-31T04:39:34.007Z,16.35
2022-10-31T04:42:02.218Z,23.08
2022-10-31T04:44:30.362Z,30.80
2022-10-31T04:46:58.546Z,47.88
2022-10-31T04:49:26.768Z,40.88
2022-10-31T04:51:55.329Z,37.55
2022-10-31T04:54:23.515Z,15.00
2022-10-31T04:56:53.066Z,12.93
2022-10-31T04:59:21.223Z,42.22
2022-10-31T05:01:49.627Z,25.13
2022-10-31T05:04:17.921Z,22.95
2022-10-31T05:06:46.097Z,29.27
2022-10-31T05:09:14.383Z,24.27
2022-10-31T05:11:42.574Z,22.40
2022-10-31T05:14:12.156Z,22.00
2022-10-31T05:16:40.391Z,41.20
2022-10-31T05:19:08.669Z,24.65
2022-10-31T05:21:36.843Z,16.92
2022-10-31T05:24:08.245Z,17.20
2022-10-31T05:26:38.178Z,15.98
2022-10-31T05:29:07.704Z,11.90
2022-10-31T05:31:38.884Z,17.67
2022-10-31T05:34:08.673Z,20.15
2022-10-31T05:36:38.885Z,17.63
2022-10-31T05:39:08.923Z,15.13
2022-10-31T05:41:38.387Z,18.65
2022-10-31T05:44:08.192Z,16.48
2022-10-31T05:46:39.268Z,20.45
2022-10-31T05:49:07.581Z,17.15
2022-10-31T05:51:35.854Z,16.15
2022-10-31T05:54:04.075Z,16.40
2022-10-31T05:56:32.374Z,26.48
2022-10-31T05:59:00.917Z,16.60
2022-10-31T06:01:29.203Z,30.08
2022-10-31T06:04:00.379Z,13.10
2022-10-31T06:06:31.251Z,21.23
2022-10-31T06:09:01.788Z,17.20
2022-10-31T06:11:32.164Z,25.70
2022-10-31T06:14:00.740Z,27.05
2022-10-31T06:16:28.956Z,15.23
2022-10-31T06:18:58.515Z,12.63
2022-10-31T06:21:27.721Z,10.75
2022-10-31T06:23:55.925Z,12.02
2022-10-31T06:26:24.592Z,21.33
2022-10-31T06:28:52.767Z,18.73
2022-10-31T06:31:20.943Z,14.75
2022-10-31T06:33:49.175Z,20.15
2022-10-31T06:36:18.725Z,16.90
2022-10-31T06:38:46.951Z,16.67
2022-10-31T06:41:15.164Z,13.48
2022-10-31T06:43:43.410Z,17.55
2022-10-31T06:46:11.558Z,13.75
2022-10-31T06:48:39.746Z,17.70
2022-10-31T06:51:08.227Z,12.98
2022-10-31T06:53:37.786Z,13.15
2022-10-31T06:56:07.086Z,10.07
2022-10-31T06:58:35.242Z,14.10
2022-10-31T07:01:03.667Z,9.45
2022-10-31T07:03:31.990Z,10.00
2022-10-31T07:06:00.164Z,15.35
2022-10-31T07:08:28.466Z,11.60
2022-10-31T07:10:59.439Z,15.27
2022-10-31T07:13:27.754Z,9.00
2022-10-31T07:16:01.894Z,11.10
2022-10-31T07:18:30.431Z,9.82
2022-10-31T07:20:58.644Z,10.20
2022-10-31T07:23:26.889Z,9.43
2022-10-31T07:25:59.421Z,10.38
2022-10-31T07:28:29.043Z,11.95
2022-10-31T07:30:59.605Z,9.45
2022-10-31T07:33:31.589Z,11.40
2022-10-31T07:35:59.949Z,10.75
2022-10-31T07:38:28.109Z,22.20
2022-10-31T07:40:56.318Z,10.13
2022-10-31T07:43:29.153Z,15.05
2022-10-31T07:45:57.561Z,10.13
2022-10-31T07:48:25.791Z,9.48
2022-10-31T07:50:53.995Z,10.52
2022-10-31T07:53:22.332Z,13.50
2022-10-31T07:55:50.842Z,12.15
2022-10-31T07:58:19.722Z,11.48
2022-10-31T08:00:50.004Z,8.30
2022-10-31T08:03:20.424Z,12.20
2022-10-31T08:05:50.459Z,12.30
2022-10-31T08:08:19.063Z,8.82
2022-10-31T08:10:47.892Z,9.98
2022-10-31T08:13:16.753Z,9.10
2022-10-31T08:15:51.676Z,9.30
2022-10-31T08:18:21.471Z,8.80
2022-10-31T08:20:49.777Z,11.25
2022-10-31T08:23:18.446Z,11.82
2022-10-31T08:25:47.984Z,11.45
2022-10-31T08:28:17.298Z,17.52
2022-10-31T08:30:48.922Z,13.63
2022-10-31T08:33:21.567Z,9.85
2022-10-31T08:35:50.661Z,13.52
2022-10-31T08:38:18.966Z,12.50
2022-10-31T08:40:51.452Z,9.77
2022-10-31T08:43:20.910Z,9.52
2022-10-31T08:45:52.079Z,9.25
2022-10-31T08:48:20.498Z,13.77
2022-10-31T08:50:51.854Z,10.52
2022-10-31T08:53:21.811Z,11.05
2022-10-31T08:55:50.205Z,9.65
2022-10-31T08:58:20.582Z,16.60
2022-10-31T09:00:52.511Z,15.50
2022-10-31T09:03:24.125Z,15.00
2022-10-31T09:05:56.416Z,12.15
2022-10-31T09:08:24.877Z,10.27
2022-10-31T09:10:53.474Z,10.27
2022-10-31T09:13:27.874Z,15.07
2022-10-31T09:15:59.680Z,13.95
2022-10-31T09:18:29.755Z,15.68
2022-10-31T09:21:00.767Z,20.00
2022-10-31T09:23:29.134Z,15.13
2022-10-31T09:25:57.985Z,16.13
2022-10-31T09:28:27.379Z,12.70
2022-10-31T09:30:57.595Z,14.82
2022-10-31T09:33:26.480Z,11.88
2022-10-31T09:35:54.936Z,15.57
2022-10-31T09:38:24.406Z,13.90
2022-10-31T09:41:05.863Z,13.32
2022-10-31T09:43:45.381Z,15.10
2022-10-31T09:46:23.879Z,15.50
2022-10-31T09:49:10.622Z,14.52
2022-10-31T09:51:50.537Z,13.88
2022-10-31T09:54:31.135Z,14.68
2022-10-31T09:57:01.129Z,13.02
2022-10-31T09:59:33.624Z,15.85
2022-10-31T10:02:07.219Z,14.55
2022-10-31T10:04:46.451Z,13.63
2022-10-31T10:07:23.160Z,15.48
2022-10-31T10:09:51.827Z,15.20
2022-10-31T10:12:36.026Z,14.55
2022-10-31T10:15:38.389Z,14.70
2022-10-31T10:18:23.890Z,16.25
2022-10-31T10:21:11.796Z,20.65
2022-10-31T10:23:57.449Z,13.75
2022-10-31T10:26:36.693Z,13.43
2022-10-31T10:29:18.938Z,18.10
2022-10-31T10:31:49.173Z,16.83
2022-10-31T10:34:37.123Z,21.83
2022-10-31T10:37:30.393Z,13.93
2022-10-31T10:40:13.879Z,14.10
2022-10-31T10:43:13.313Z,15.93
2022-10-31T10:46:09.313Z,13.48
2022-10-31T10:49:00.738Z,14.55
2022-10-31T10:52:13.118Z,20.88
2022-10-31T10:55:14.914Z,15.63
2022-10-31T10:58:08.590Z,15.38
2022-10-31T11:00:51.778Z,12.88
2022-10-31T11:03:37.790Z,17.05
2022-10-31T11:06:29.627Z,17.52
2022-10-31T11:09:17.463Z,12.75
2022-10-31T11:12:13.285Z,15.73
2022-10-31T11:14:48.939Z,17.17
2022-10-31T11:17:29.446Z,16.10
2022-10-31T11:20:32.844Z,16.50
2022-10-31T11:23:16.841Z,16.88
2022-10-31T11:25:57.591Z,19.33
2022-10-31T11:28:26.334Z,16.92
2022-10-31T11:30:58.082Z,17.23
2022-10-31T11:33:32.659Z,17.38
2022-10-31T11:36:02.319Z,16.58
2022-10-31T11:38:37.517Z,20.92
2022-10-31T11:41:18.503Z,17.50
2022-10-31T11:43:52.351Z,17.95
2022-10-31T11:46:27.015Z,19.52
2022-10-31T11:48:57.951Z,15.85
2022-10-31T11:51:29.869Z,18.10
2022-10-31T11:54:03.225Z,17.25
2022-10-31T11:56:42.564Z,17.77
2022-10-31T11:59:24.810Z,15.43
2022-10-31T12:01:55.915Z,16.55
2022-10-31T12:04:40.134Z,16.45
2022-10-31T12:07:08.759Z,20.20
2022-10-31T12:09:39.012Z,20.48
2022-10-31T12:12:37.033Z,16.27
2022-10-31T12:15:28.602Z,18.00
2022-10-31T12:18:18.757Z,16.52
2022-10-31T12:21:02.230Z,14.38
2022-10-31T12:23:45.320Z,15.93
2022-10-31T12:26:22.408Z,15.55
2022-10-31T12:29:24.108Z,14.43
2022-10-31T12:32:06.511Z,19.38
2022-10-31T12:34:59.976Z,15.00
2022-10-31T12:37:46.585Z,16.02
2022-10-31T12:40:38.030Z,14.77
2022-10-31T12:43:22.949Z,15.10
2022-10-31T12:45:57.986Z,14.40
2022-10-31T12:49:17.429Z,13.70
2022-10-31T12:51:58.262Z,16.55
2022-10-31T12:54:48.101Z,15.82
2022-10-31T12:57:26.074Z,14.55
2022-10-31T13:00:02.178Z,15.63
2022-10-31T13:02:38.629Z,14.00
2022-10-31T13:05:26.393Z,12.18
2022-10-31T13:08:00.619Z,15.82
2022-10-31T13:10:34.799Z,14.30
2022-10-31T13:13:09.598Z,13.00
2022-10-31T13:15:51.503Z,12.27
2022-10-31T13:18:35.576Z,12.40
2022-10-31T13:21:10.384Z,12.70
2022-10-31T13:23:56.605Z,14.10
2022-10-31T13:26:39.431Z,12.48
2022-10-31T13:29:19.586Z,13.77
2022-10-31T13:31:48.006Z,14.60
2022-10-31T13:34:27.072Z,15.48
2022-10-31T13:37:05.794Z,13.65
2022-10-31T13:39:50.110Z,13.82
2022-10-31T13:42:25.403Z,15.32
2022-10-31T13:44:53.630Z,13.70
2022-10-31T13:47:28.915Z,14.63
2022-10-31T13:50:21.990Z,13.50
2022-10-31T13:52:50.293Z,12.20
2022-10-31T13:55:41.148Z,13.18
2022-10-31T13:58:26.015Z,14.95
2022-10-31T14:01:21.411Z,14.60
2022-10-31T14:04:12.298Z,11.52
2022-10-31T14:06:53.334Z,13.98
2022-10-31T14:09:30.649Z,11.65
2022-10-31T14:12:02.913Z,13.52
2022-10-31T14:14:50.290Z,13.68
2022-10-31T14:17:23.580Z,14.38
2022-10-31T14:20:36.082Z,14.30
2022-10-31T14:23:38.636Z,20.05
2022-10-31T14:26:23.643Z,15.65
2022-10-31T14:28:53.075Z,17.25
2022-10-31T14:31:37.826Z,16.75
2022-10-31T14:34:25.130Z,17.52
2022-10-31T14:37:25.614Z,17.80
2022-10-31T14:40:16.518Z,18.90
2022-10-31T14:43:15.288Z,21.20
2022-10-31T14:45:53.618Z,19.98
2022-10-31T14:48:45.044Z,32.45
2022-10-31T14:51:18.507Z,26.17
2022-10-31T14:53:50.605Z,23.75
2022-10-31T14:56:26.807Z,20.77
2022-10-31T14:58:57.661Z,18.15
2022-10-31T15:01:30.435Z,19.73
2022-10-31T15:04:22.359Z,22.20
2022-10-31T15:06:56.315Z,19.05
2022-10-31T15:09:27.049Z,20.25
2022-10-31T15:11:56.659Z,22.50
2022-10-31T15:14:28.337Z,25.50
2022-10-31T15:16:59.121Z,26.13
2022-10-31T15:19:29.659Z,24.83
2022-10-31T15:21:59.612Z,21.90
2022-10-31T15:24:35.491Z,26.65
2022-10-31T15:27:05.875Z,24.63
2022-10-31T15:29:34.136Z,29.20
2022-10-31T15:32:18.336Z,31.75
2022-10-31T15:34:47.048Z,23.15
2022-10-31T15:37:17.562Z,31.60
2022-10-31T15:39:47.393Z,24.48
2022-10-31T15:42:28.643Z,37.53
2022-10-31T15:45:04.811Z,37.13
2022-10-31T15:47:34.706Z,55.08
2022-10-31T15:50:06.218Z,73.85
2022-10-31T15:52:41.178Z,54.20
2022-10-31T15:55:21.892Z,40.13
2022-10-31T15:57:54.393Z,50.90
2022-10-31T16:00:29.565Z,22.85
2022-10-31T16:03:09.242Z,48.03
2022-10-31T16:05:40.610Z,42.92
2022-10-31T16:08:26.253Z,49.53
2022-10-31T16:10:55.365Z,42.88
2022-10-31T16:13:29.666Z,66.18
2022-10-31T16:16:32.750Z,43.08
2022-10-31T16:18:52.240Z,40.05
2022-10-31T16:21:28.225Z,48.92
2022-10-31T16:24:05.825Z,33.58
2022-10-31T16:26:35.106Z,46.83
2022-10-31T16:29:06.066Z,28.42
2022-10-31T16:31:40.679Z,35.88
2022-10-31T16:34:18.611Z,41.58
2022-10-31T16:36:49.551Z,20.83
2022-10-31T16:39:18.317Z,21.67
2022-10-31T16:41:51.330Z,38.80
2022-10-31T16:44:26.499Z,29.42
2022-10-31T16:47:14.264Z,19.55
2022-10-31T16:49:43.072Z,41.05
2022-10-31T16:52:11.418Z,48.63
2022-10-31T16:54:40.107Z,27.63
2022-10-31T16:57:09.122Z,37.30
2022-10-31T16:59:38.772Z,15.52
2022-10-31T17:02:13.540Z,15.57
2022-10-31T17:04:41.794Z,19.13
2022-10-31T17:07:09.998Z,21.02
2022-10-31T17:09:38.254Z,21.40
2022-10-31T17:12:08.134Z,19.52
2022-10-31T17:14:38.267Z,33.35
2022-10-31T17:17:06.431Z,36.47
2022-10-31T17:19:34.903Z,14.25
2022-10-31T17:22:03.978Z,29.17
2022-10-31T17:24:32.206Z,27.60
2022-10-31T17:27:00.529Z,25.77
2022-10-31T17:29:28.782Z,30.65
2022-10-31T17:31:58.331Z,20.15
2022-10-31T17:34:26.636Z,30.80
2022-10-31T17:36:55.278Z,18.88
2022-10-31T17:39:23.975Z,21.38
2022-10-31T17:41:52.685Z,16.75
2022-10-31T17:44:21.098Z,17.48
2022-10-31T17:46:49.265Z,31.83
2022-10-31T17:49:18.786Z,21.23
2022-10-31T17:51:47.005Z,20.75
2022-10-31T17:54:18.411Z,17.98
2022-10-31T17:56:46.620Z,31.35
2022-10-31T17:59:14.795Z,30.85
2022-10-31T18:01:43.099Z,26.20
2022-10-31T18:04:11.513Z,41.50
2022-10-31T18:06:41.157Z,35.03
2022-10-31T18:09:09.458Z,28.40
2022-10-31T18:11:37.654Z,38.83
2022-10-31T18:14:06.174Z,39.42
2022-10-31T18:19:07.743Z,39.85
2022-10-31T18:21:35.938Z,23.17
2022-10-31T18:24:06.448Z,30.98
2022-10-31T18:26:34.698Z,39.03
2022-10-31T18:29:03.500Z,59.53
2022-10-31T18:31:32.128Z,72.60
2022-10-31T18:34:00.362Z,64.70
2022-10-31T18:36:28.590Z,36.58
2022-10-31T18:38:57.614Z,21.65
2022-10-31T18:41:27.498Z,27.75
2022-10-31T18:43:59.838Z,20.92
2022-10-31T18:46:29.272Z,19.13
2022-10-31T18:48:57.734Z,28.85
2022-10-31T18:51:25.976Z,41.78
2022-10-31T18:53:56.121Z,21.58
2022-10-31T18:56:26.707Z,20.65
2022-10-31T18:58:54.946Z,22.17
2022-10-31T19:01:23.981Z,37.88
2022-10-31T19:03:56.433Z,21.52
2022-10-31T19:06:25.280Z,35.88
2022-10-31T19:08:59.836Z,21.27
2022-10-31T19:11:29.844Z,35.35
2022-10-31T19:13:58.983Z,17.92
2022-10-31T19:16:27.361Z,18.92
2022-10-31T19:18:56.719Z,23.00
2022-10-31T19:21:25.743Z,17.05
2022-10-31T19:23:56.321Z,26.92
2022-10-31T19:26:24.808Z,22.50
2022-10-31T19:28:54.671Z,31.17
2022-10-31T19:31:23.053Z,19.63
2022-10-31T19:33:51.227Z,18.45
2022-10-31T19:36:21.460Z,17.45
2022-10-31T19:38:52.703Z,16.65
2022-10-31T19:41:23.075Z,16.58
2022-10-31T19:43:53.514Z,22.50
2022-10-31T19:46:40.496Z,25.67
2022-10-31T19:49:12.624Z,22.27
2022-10-31T19:51:40.953Z,27.80
2022-10-31T19:54:09.206Z,21.20
2022-10-31T19:56:37.408Z,16.88
2022-10-31T19:59:06.954Z,30.20
2022-10-31T20:01:35.407Z,25.85
2022-10-31T20:04:03.842Z,18.75
2022-10-31T20:06:34.677Z,17.05
2022-10-31T20:09:07.944Z,19.80
2022-10-31T20:11:38.721Z,28.38
2022-10-31T20:14:10.021Z,18.13
2022-10-31T20:16:38.210Z,15.95
2022-10-31T20:19:06.903Z,23.25
2022-10-31T20:21:39.842Z,19.60
2022-10-31T20:24:10.938Z,18.33
2022-10-31T20:26:41.180Z,16.65
2022-10-31T20:29:15.726Z,15.23
2022-10-31T20:31:45.578Z,17.08
2022-10-31T20:34:13.882Z,24.15
2022-10-31T20:36:42.092Z,20.13
2022-10-31T20:39:11.331Z,22.50
2022-10-31T20:41:40.184Z,16.80
2022-10-31T20:44:09.894Z,18.42
2022-10-31T20:46:38.210Z,18.80
2022-10-31T20:49:07.019Z,15.18
2022-10-31T20:51:35.272Z,15.20
2022-10-31T20:54:03.521Z,15.70
2022-10-31T20:56:31.850Z,13.73
2022-10-31T20:59:00.151Z,15.75
2022-10-31T21:01:33.165Z,19.88
2022-10-31T21:04:01.527Z,23.17
2022-10-31T21:06:30.555Z,22.08
2022-10-31T21:08:59.171Z,38.30
2022-10-31T21:11:29.062Z,25.77
2022-10-31T21:13:57.714Z,18.67
2022-10-31T21:16:31.053Z,14.52
2022-10-31T21:19:01.508Z,26.58
2022-10-31T21:21:33.214Z,29.45
2022-10-31T21:24:07.076Z,55.50
2022-10-31T21:26:39.107Z,37.33
2022-10-31T21:29:08.670Z,73.15
2022-10-31T21:31:39.722Z,85.45
2022-10-31T21:34:08.051Z,39.75
2022-10-31T21:36:36.827Z,113.55
2022-10-31T21:39:06.594Z,79.75
2022-10-31T21:41:35.125Z,34.65
2022-10-31T21:44:03.327Z,44.60
2022-10-31T21:46:33.626Z,77.75
2022-10-31T21:49:05.341Z,52.13
2022-10-31T21:51:37.413Z,53.42
2022-10-31T21:54:29.230Z,79.82
2022-10-31T21:56:58.720Z,57.95
2022-10-31T21:59:27.156Z,35.80
2022-10-31T22:01:59.863Z,23.98
2022-10-31T22:04:29.955Z,36.00
2022-10-31T22:06:58.330Z,76.03
2022-10-31T22:09:26.523Z,26.83
2022-10-31T22:11:54.722Z,19.55
2022-10-31T22:14:23.003Z,27.25
2022-10-31T22:16:51.207Z,34.10
2022-10-31T22:19:19.460Z,13.13
2022-10-31T22:21:49.610Z,13.38
2022-10-31T22:24:18.826Z,9.27
2022-10-31T22:26:47.154Z,14.77
2022-10-31T22:29:17.869Z,23.77
2022-10-31T22:31:53.522Z,36.42
2022-10-31T22:34:25.614Z,22.05
2022-10-31T22:36:56.255Z,15.52
2022-10-31T22:39:24.714Z,23.55
2022-10-31T22:41:52.989Z,21.95
2022-10-31T22:44:22.451Z,42.33
2022-10-31T22:46:50.651Z,28.65
2022-10-31T22:49:19.037Z,43.08
2022-10-31T22:51:47.267Z,21.75
2022-10-31T22:54:19.652Z,48.95
2022-10-31T22:56:48.189Z,42.45
2022-10-31T22:59:18.057Z,38.63
2022-10-31T23:01:46.843Z,33.40
2022-10-31T23:04:16.449Z,41.35
2022-10-31T23:06:45.349Z,32.92
2022-10-31T23:09:18.489Z,64.68
2022-10-31T23:11:47.295Z,13.13
2022-10-31T23:14:20.416Z,23.02
2022-10-31T23:16:51.011Z,45.42
2022-10-31T23:19:22.530Z,35.38
2022-10-31T23:21:57.303Z,14.43
2022-10-31T23:24:30.892Z,11.57
2022-10-31T23:27:05.366Z,15.10
2022-10-31T23:29:33.888Z,29.73
2022-10-31T23:32:02.302Z,29.05
2022-10-31T23:34:30.643Z,35.70
2022-10-31T23:36:59.030Z,14.63
2022-10-31T23:39:28.941Z,17.38
2022-10-31T23:41:57.134Z,34.92
2022-10-31T23:44:25.357Z,42.13
2022-10-31T23:46:53.974Z,18.98
2022-10-31T23:49:22.217Z,25.52
2022-10-31T23:51:50.437Z,22.00
2022-10-31T23:54:18.782Z,14.60
2022-10-31T23:56:48.336Z,17.08
2022-10-31T23:59:16.558Z,14.23
